sensor_id;sensor_type;location;lat;lon;timestamp;temperature;humidity
3713;DHT22;1872;51.406;6.856;2023-02-15T00:00:09;4.10;99.90
3713;DHT22;1872;51.406;6.856;2023-02-15T00:02:39;4.10;99.90
3713;DHT22;1872;51.406;6.856;2023-02-15T00:05:07;4.00;99.90
3713;DHT22;1872;51.406;6.856;2023-02-15T00:07:33;4.10;99.90
3713;DHT22;1872;51.406;6.856;2023-02-15T00:10:02;4.00;99.90
3713;DHT22;1872;51.406;6.856;2023-02-15T00:12:28;4.00;99.90
3713;DHT22;1872;51.406;6.856;2023-02-15T00:14:53;3.90;99.90
3713;DHT22;1872;51.406;6.856;2023-02-15T00:17:22;4.00;99.90
3713;DHT22;1872;51.406;6.856;2023-02-15T00:19:47;3.90;99.90
3713;DHT22;1872;51.406;6.856;2023-02-15T00:22:15;3.90;99.90
3713;DHT22;1872;51.406;6.856;2023-02-15T00:24:41;3.90;99.90
3713;DHT22;1872;51.406;6.856;2023-02-15T00:27:14;3.80;99.90
3713;DHT22;1872;51.406;6.856;2023-02-15T00:29:42;3.90;99.90
3713;DHT22;1872;51.406;6.856;2023-02-15T00:32:08;3.90;99.90
3713;DHT22;1872;51.406;6.856;2023-02-15T00:34:34;3.90;99.90
3713;DHT22;1872;51.406;6.856;2023-02-15T00:37:02;3.90;99.90
3713;DHT22;1872;51.406;6.856;2023-02-15T00:39:27;3.90;99.90
3713;DHT22;1872;51.406;6.856;2023-02-15T00:41:54;3.90;99.90
3713;DHT22;1872;51.406;6.856;2023-02-15T00:44:20;3.90;99.90
3713;DHT22;1872;51.406;6.856;2023-02-15T00:46:45;3.90;99.90
3713;DHT22;1872;51.406;6.856;2023-02-15T00:49:11;4.00;99.90
3713;DHT22;1872;51.406;6.856;2023-02-15T00:51:37;4.00;99.90
3713;DHT22;1872;51.406;6.856;2023-02-15T00:54:03;4.00;99.90
3713;DHT22;1872;51.406;6.856;2023-02-15T00:56:31;4.00;99.90
3713;DHT22;1872;51.406;6.856;2023-02-15T00:58:56;4.00;99.90
3713;DHT22;1872;51.406;6.856;2023-02-15T01:01:22;4.00;99.90
3713;DHT22;1872;51.406;6.856;2023-02-15T01:03:52;3.90;99.90
3713;DHT22;1872;51.406;6.856;2023-02-15T01:06:18;3.90;99.90
3713;DHT22;1872;51.406;6.856;2023-02-15T01:08:44;3.90;99.90
3713;DHT22;1872;51.406;6.856;2023-02-15T01:11:13;3.90;99.90
3713;DHT22;1872;51.406;6.856;2023-02-15T01:13:42;3.80;99.90
3713;DHT22;1872;51.406;6.856;2023-02-15T01:16:08;3.80;99.90
3713;DHT22;1872;51.406;6.856;2023-02-15T01:18:36;3.80;99.90
3713;DHT22;1872;51.406;6.856;2023-02-15T01:21:09;3.70;99.90
3713;DHT22;1872;51.406;6.856;2023-02-15T01:23:35;3.70;99.90
3713;DHT22;1872;51.406;6.856;2023-02-15T01:26:04;3.80;99.90
3713;DHT22;1872;51.406;6.856;2023-02-15T01:28:29;3.70;99.90
3713;DHT22;1872;51.406;6.856;2023-02-15T01:30:56;3.70;99.90
3713;DHT22;1872;51.406;6.856;2023-02-15T01:33:24;3.70;99.90
3713;DHT22;1872;51.406;6.856;2023-02-15T01:35:58;3.80;99.90
3713;DHT22;1872;51.406;6.856;2023-02-15T01:38:24;3.80;99.90
3713;DHT22;1872;51.406;6.856;2023-02-15T01:40:53;3.80;99.90
3713;DHT22;1872;51.406;6.856;2023-02-15T01:43:45;3.80;99.90
3713;DHT22;1872;51.406;6.856;2023-02-15T01:46:15;3.80;99.90
3713;DHT22;1872;51.406;6.856;2023-02-15T01:48:48;3.80;99.90
3713;DHT22;1872;51.406;6.856;2023-02-15T01:51:18;3.80;99.90
3713;DHT22;1872;51.406;6.856;2023-02-15T01:53:51;3.80;99.90
3713;DHT22;1872;51.406;6.856;2023-02-15T01:56:24;3.80;99.90
3713;DHT22;1872;51.406;6.856;2023-02-15T01:58:53;3.80;99.90
3713;DHT22;1872;51.406;6.856;2023-02-15T02:01:21;3.80;99.90
3713;DHT22;1872;51.406;6.856;2023-02-15T02:04:05;3.80;99.90
3713;DHT22;1872;51.406;6.856;2023-02-15T02:06:36;3.80;99.90
3713;DHT22;1872;51.406;6.856;2023-02-15T02:09:05;3.80;99.90
3713;DHT22;1872;51.406;6.856;2023-02-15T02:11:32;3.80;99.90
3713;DHT22;1872;51.406;6.856;2023-02-15T02:13:58;3.80;99.90
3713;DHT22;1872;51.406;6.856;2023-02-15T02:19:52;3.80;99.90
3713;DHT22;1872;51.406;6.856;2023-02-15T02:37:01;3.70;99.90
3713;DHT22;1872;51.406;6.856;2023-02-15T02:39:44;3.70;99.90
3713;DHT22;1872;51.406;6.856;2023-02-15T02:42:43;3.70;99.90
3713;DHT22;1872;51.406;6.856;2023-02-15T02:45:23;3.70;99.90
3713;DHT22;1872;51.406;6.856;2023-02-15T02:47:55;3.60;99.90
3713;DHT22;1872;51.406;6.856;2023-02-15T02:50:25;3.60;99.90
3713;DHT22;1872;51.406;6.856;2023-02-15T02:52:54;3.60;99.90
3713;DHT22;1872;51.406;6.856;2023-02-15T03:00:56;3.60;99.90
3713;DHT22;1872;51.406;6.856;2023-02-15T03:06:20;3.60;99.90
3713;DHT22;1872;51.406;6.856;2023-02-15T03:08:53;3.60;99.90
3713;DHT22;1872;51.406;6.856;2023-02-15T03:11:21;3.60;99.90
3713;DHT22;1872;51.406;6.856;2023-02-15T03:13:48;3.60;99.90
3713;DHT22;1872;51.406;6.856;2023-02-15T03:16:18;3.60;99.90
3713;DHT22;1872;51.406;6.856;2023-02-15T03:18:55;3.60;99.90
3713;DHT22;1872;51.406;6.856;2023-02-15T03:24:10;3.50;99.90
3713;DHT22;1872;51.406;6.856;2023-02-15T03:26:38;3.50;99.90
3713;DHT22;1872;51.406;6.856;2023-02-15T03:29:06;3.50;99.90
3713;DHT22;1872;51.406;6.856;2023-02-15T03:31:38;3.50;99.90
3713;DHT22;1872;51.406;6.856;2023-02-15T03:34:09;3.50;99.90
3713;DHT22;1872;51.406;6.856;2023-02-15T03:42:27;3.50;99.90
3713;DHT22;1872;51.406;6.856;2023-02-15T03:45:05;3.50;99.90
3713;DHT22;1872;51.406;6.856;2023-02-15T03:47:42;3.50;99.90
3713;DHT22;1872;51.406;6.856;2023-02-15T03:50:20;3.50;99.90
3713;DHT22;1872;51.406;6.856;2023-02-15T03:53:10;3.50;99.90
3713;DHT22;1872;51.406;6.856;2023-02-15T03:55:37;3.50;99.90
3713;DHT22;1872;51.406;6.856;2023-02-15T03:58:03;3.50;99.90
3713;DHT22;1872;51.406;6.856;2023-02-15T04:01:27;3.50;99.90
3713;DHT22;1872;51.406;6.856;2023-02-15T04:07:00;3.50;99.90
3713;DHT22;1872;51.406;6.856;2023-02-15T04:09:28;3.50;99.90
3713;DHT22;1872;51.406;6.856;2023-02-15T04:12:13;3.40;99.90
3713;DHT22;1872;51.406;6.856;2023-02-15T04:14:40;3.40;99.90
3713;DHT22;1872;51.406;6.856;2023-02-15T04:17:25;3.40;99.90
3713;DHT22;1872;51.406;6.856;2023-02-15T04:19:50;3.40;99.90
3713;DHT22;1872;51.406;6.856;2023-02-15T04:22:35;3.40;99.90
3713;DHT22;1872;51.406;6.856;2023-02-15T04:25:26;3.30;99.90
3713;DHT22;1872;51.406;6.856;2023-02-15T04:27:53;3.30;99.90
3713;DHT22;1872;51.406;6.856;2023-02-15T04:30:23;3.30;99.90
3713;DHT22;1872;51.406;6.856;2023-02-15T04:32:49;3.30;99.90
3713;DHT22;1872;51.406;6.856;2023-02-15T04:35:20;3.30;99.90
3713;DHT22;1872;51.406;6.856;2023-02-15T04:37:45;3.20;99.90
3713;DHT22;1872;51.406;6.856;2023-02-15T04:40:13;3.20;99.90
3713;DHT22;1872;51.406;6.856;2023-02-15T04:42:41;3.20;99.90
3713;DHT22;1872;51.406;6.856;2023-02-15T04:45:09;3.10;99.90
3713;DHT22;1872;51.406;6.856;2023-02-15T04:47:35;3.10;99.90
3713;DHT22;1872;51.406;6.856;2023-02-15T04:50:02;3.20;99.90
3713;DHT22;1872;51.406;6.856;2023-02-15T04:52:28;3.10;99.90
3713;DHT22;1872;51.406;6.856;2023-02-15T04:54:53;3.10;99.90
3713;DHT22;1872;51.406;6.856;2023-02-15T04:57:19;3.10;99.90
3713;DHT22;1872;51.406;6.856;2023-02-15T04:59:45;3.10;99.90
3713;DHT22;1872;51.406;6.856;2023-02-15T05:02:11;3.20;99.90
3713;DHT22;1872;51.406;6.856;2023-02-15T05:04:37;3.20;99.90
3713;DHT22;1872;51.406;6.856;2023-02-15T05:07:04;3.20;99.90
3713;DHT22;1872;51.406;6.856;2023-02-15T05:09:32;3.20;99.90
3713;DHT22;1872;51.406;6.856;2023-02-15T05:11:58;3.20;99.90
3713;DHT22;1872;51.406;6.856;2023-02-15T05:14:24;3.20;99.90
3713;DHT22;1872;51.406;6.856;2023-02-15T05:16:52;3.20;99.90
3713;DHT22;1872;51.406;6.856;2023-02-15T05:19:21;3.20;99.90
3713;DHT22;1872;51.406;6.856;2023-02-15T05:21:49;3.20;99.90
3713;DHT22;1872;51.406;6.856;2023-02-15T05:24:15;3.10;99.90
3713;DHT22;1872;51.406;6.856;2023-02-15T05:27:02;3.10;99.90
3713;DHT22;1872;51.406;6.856;2023-02-15T05:29:46;3.10;99.90
3713;DHT22;1872;51.406;6.856;2023-02-15T05:32:15;3.10;99.90
3713;DHT22;1872;51.406;6.856;2023-02-15T05:34:43;3.10;99.90
3713;DHT22;1872;51.406;6.856;2023-02-15T05:37:11;3.10;99.90
3713;DHT22;1872;51.406;6.856;2023-02-15T05:39:36;3.10;99.90
3713;DHT22;1872;51.406;6.856;2023-02-15T05:42:05;3.10;99.90
3713;DHT22;1872;51.406;6.856;2023-02-15T05:44:38;3.10;99.90
3713;DHT22;1872;51.406;6.856;2023-02-15T05:47:04;3.10;99.90
3713;DHT22;1872;51.406;6.856;2023-02-15T05:49:36;3.10;99.90
3713;DHT22;1872;51.406;6.856;2023-02-15T05:52:03;3.10;99.90
3713;DHT22;1872;51.406;6.856;2023-02-15T05:54:29;3.10;99.90
3713;DHT22;1872;51.406;6.856;2023-02-15T05:56:55;3.00;99.90
3713;DHT22;1872;51.406;6.856;2023-02-15T05:59:23;3.00;99.90
3713;DHT22;1872;51.406;6.856;2023-02-15T06:01:49;3.00;99.90
3713;DHT22;1872;51.406;6.856;2023-02-15T06:04:14;3.00;99.90
3713;DHT22;1872;51.406;6.856;2023-02-15T06:06:40;3.10;99.90
3713;DHT22;1872;51.406;6.856;2023-02-15T06:09:06;3.10;99.90
3713;DHT22;1872;51.406;6.856;2023-02-15T06:11:31;3.10;99.90
3713;DHT22;1872;51.406;6.856;2023-02-15T06:13:57;3.10;99.90
3713;DHT22;1872;51.406;6.856;2023-02-15T06:16:25;3.10;99.90
3713;DHT22;1872;51.406;6.856;2023-02-15T06:18:53;3.10;99.90
3713;DHT22;1872;51.406;6.856;2023-02-15T06:21:19;3.10;99.90
3713;DHT22;1872;51.406;6.856;2023-02-15T06:23:47;3.10;99.90
3713;DHT22;1872;51.406;6.856;2023-02-15T06:26:15;3.10;99.90
3713;DHT22;1872;51.406;6.856;2023-02-15T06:28:42;3.10;99.90
3713;DHT22;1872;51.406;6.856;2023-02-15T06:31:10;3.10;99.90
3713;DHT22;1872;51.406;6.856;2023-02-15T06:33:43;3.10;99.90
3713;DHT22;1872;51.406;6.856;2023-02-15T06:36:11;3.10;99.90
3713;DHT22;1872;51.406;6.856;2023-02-15T06:38:38;3.10;99.90
3713;DHT22;1872;51.406;6.856;2023-02-15T06:41:06;3.10;99.90
3713;DHT22;1872;51.406;6.856;2023-02-15T06:43:34;3.10;99.90
3713;DHT22;1872;51.406;6.856;2023-02-15T06:46:02;3.10;99.90
3713;DHT22;1872;51.406;6.856;2023-02-15T06:48:28;3.10;99.90
3713;DHT22;1872;51.406;6.856;2023-02-15T06:50:53;3.10;99.90
3713;DHT22;1872;51.406;6.856;2023-02-15T06:53:19;3.10;99.90
3713;DHT22;1872;51.406;6.856;2023-02-15T06:55:45;3.10;99.90
3713;DHT22;1872;51.406;6.856;2023-02-15T06:58:10;3.10;99.90
3713;DHT22;1872;51.406;6.856;2023-02-15T07:00:36;3.20;99.90
3713;DHT22;1872;51.406;6.856;2023-02-15T07:03:04;3.20;99.90
3713;DHT22;1872;51.406;6.856;2023-02-15T07:05:33;3.20;99.90
3713;DHT22;1872;51.406;6.856;2023-02-15T07:07:59;3.20;99.90
3713;DHT22;1872;51.406;6.856;2023-02-15T07:10:28;3.20;99.90
3713;DHT22;1872;51.406;6.856;2023-02-15T07:12:54;3.20;99.90
3713;DHT22;1872;51.406;6.856;2023-02-15T07:15:20;3.30;99.90
3713;DHT22;1872;51.406;6.856;2023-02-15T07:17:47;3.30;99.90
3713;DHT22;1872;51.406;6.856;2023-02-15T07:20:18;3.30;99.90
3713;DHT22;1872;51.406;6.856;2023-02-15T07:22:44;3.40;99.90
3713;DHT22;1872;51.406;6.856;2023-02-15T07:25:12;3.40;99.90
3713;DHT22;1872;51.406;6.856;2023-02-15T07:27:38;3.40;99.90
3713;DHT22;1872;51.406;6.856;2023-02-15T07:30:06;3.50;99.90
3713;DHT22;1872;51.406;6.856;2023-02-15T07:32:33;3.50;99.90
3713;DHT22;1872;51.406;6.856;2023-02-15T07:35:00;3.50;99.90
3713;DHT22;1872;51.406;6.856;2023-02-15T07:37:26;3.60;99.90
3713;DHT22;1872;51.406;6.856;2023-02-15T07:39:52;3.60;99.90
3713;DHT22;1872;51.406;6.856;2023-02-15T07:42:18;3.70;99.90
3713;DHT22;1872;51.406;6.856;2023-02-15T07:44:45;3.80;99.90
3713;DHT22;1872;51.406;6.856;2023-02-15T07:47:11;3.90;99.90
3713;DHT22;1872;51.406;6.856;2023-02-15T07:49:37;3.90;99.90
3713;DHT22;1872;51.406;6.856;2023-02-15T07:52:04;4.00;99.90
3713;DHT22;1872;51.406;6.856;2023-02-15T07:54:29;4.00;99.90
3713;DHT22;1872;51.406;6.856;2023-02-15T07:56:55;4.10;99.90
3713;DHT22;1872;51.406;6.856;2023-02-15T07:59:23;4.20;99.90
3713;DHT22;1872;51.406;6.856;2023-02-15T08:01:50;4.30;99.90
3713;DHT22;1872;51.406;6.856;2023-02-15T08:04:19;4.30;99.90
3713;DHT22;1872;51.406;6.856;2023-02-15T08:06:45;4.40;99.90
3713;DHT22;1872;51.406;6.856;2023-02-15T08:09:11;4.50;99.90
3713;DHT22;1872;51.406;6.856;2023-02-15T08:11:37;4.50;99.90
3713;DHT22;1872;51.406;6.856;2023-02-15T08:16:42;4.70;99.90
3713;DHT22;1872;51.406;6.856;2023-02-15T08:19:28;4.70;99.90
3713;DHT22;1872;51.406;6.856;2023-02-15T08:22:00;4.80;99.90
3713;DHT22;1872;51.406;6.856;2023-02-15T08:24:28;4.90;99.90
3713;DHT22;1872;51.406;6.856;2023-02-15T08:26:54;4.90;99.90
3713;DHT22;1872;51.406;6.856;2023-02-15T08:29:25;5.00;99.90
3713;DHT22;1872;51.406;6.856;2023-02-15T08:31:57;5.10;99.90
3713;DHT22;1872;51.406;6.856;2023-02-15T08:34:25;5.20;99.90
3713;DHT22;1872;51.406;6.856;2023-02-15T08:36:51;5.30;99.90
3713;DHT22;1872;51.406;6.856;2023-02-15T08:39:17;5.40;99.90
3713;DHT22;1872;51.406;6.856;2023-02-15T08:41:44;5.50;99.90
3713;DHT22;1872;51.406;6.856;2023-02-15T08:44:11;5.60;99.90
3713;DHT22;1872;51.406;6.856;2023-02-15T08:46:42;5.70;99.90
3713;DHT22;1872;51.406;6.856;2023-02-15T08:49:15;5.90;99.90
3713;DHT22;1872;51.406;6.856;2023-02-15T08:51:41;6.00;99.90
3713;DHT22;1872;51.406;6.856;2023-02-15T08:54:10;6.10;99.90
3713;DHT22;1872;51.406;6.856;2023-02-15T08:56:39;6.20;99.90
3713;DHT22;1872;51.406;6.856;2023-02-15T08:59:11;6.30;99.90
3713;DHT22;1872;51.406;6.856;2023-02-15T09:01:37;6.50;99.90
3713;DHT22;1872;51.406;6.856;2023-02-15T09:04:05;6.60;99.90
3713;DHT22;1872;51.406;6.856;2023-02-15T09:06:34;6.70;99.90
3713;DHT22;1872;51.406;6.856;2023-02-15T09:09:01;6.80;99.90
3713;DHT22;1872;51.406;6.856;2023-02-15T09:11:33;6.90;99.90
3713;DHT22;1872;51.406;6.856;2023-02-15T09:14:02;7.00;99.90
3713;DHT22;1872;51.406;6.856;2023-02-15T09:16:30;7.10;99.90
3713;DHT22;1872;51.406;6.856;2023-02-15T09:18:57;7.10;99.90
3713;DHT22;1872;51.406;6.856;2023-02-15T09:21:31;7.20;99.90
3713;DHT22;1872;51.406;6.856;2023-02-15T09:23:59;7.20;99.90
3713;DHT22;1872;51.406;6.856;2023-02-15T09:26:26;7.20;99.90
3713;DHT22;1872;51.406;6.856;2023-02-15T09:28:54;7.20;99.90
3713;DHT22;1872;51.406;6.856;2023-02-15T09:31:23;7.30;99.90
3713;DHT22;1872;51.406;6.856;2023-02-15T09:33:49;7.30;99.90
3713;DHT22;1872;51.406;6.856;2023-02-15T09:36:22;7.30;99.90
3713;DHT22;1872;51.406;6.856;2023-02-15T09:39:00;7.40;99.90
3713;DHT22;1872;51.406;6.856;2023-02-15T09:55:12;7.50;99.90
3713;DHT22;1872;51.406;6.856;2023-02-15T10:00:44;7.50;99.90
3713;DHT22;1872;51.406;6.856;2023-02-15T10:06:03;7.50;99.90
3713;DHT22;1872;51.406;6.856;2023-02-15T10:09:00;7.60;99.90
3713;DHT22;1872;51.406;6.856;2023-02-15T10:17:00;7.60;99.90
3713;DHT22;1872;51.406;6.856;2023-02-15T10:19:51;7.70;99.90
3713;DHT22;1872;51.406;6.856;2023-02-15T10:27:49;7.80;99.90
3713;DHT22;1872;51.406;6.856;2023-02-15T10:33:00;7.90;99.90
3713;DHT22;1872;51.406;6.856;2023-02-15T10:35:58;8.00;99.90
3713;DHT22;1872;51.406;6.856;2023-02-15T10:38:44;8.10;99.90
3713;DHT22;1872;51.406;6.856;2023-02-15T10:54:34;8.40;99.90
3713;DHT22;1872;51.406;6.856;2023-02-15T11:00:23;8.60;99.90
3713;DHT22;1872;51.406;6.856;2023-02-15T11:08:30;8.80;99.90
3713;DHT22;1872;51.406;6.856;2023-02-15T11:10:59;8.90;99.90
3713;DHT22;1872;51.406;6.856;2023-02-15T11:13:31;8.90;99.90
3713;DHT22;1872;51.406;6.856;2023-02-15T11:16:22;9.00;99.90
3713;DHT22;1872;51.406;6.856;2023-02-15T11:19:00;9.10;99.90
3713;DHT22;1872;51.406;6.856;2023-02-15T11:23:54;9.20;99.90
3713;DHT22;1872;51.406;6.856;2023-02-15T11:26:34;9.20;99.90
3713;DHT22;1872;51.406;6.856;2023-02-15T11:29:18;9.30;99.90
3713;DHT22;1872;51.406;6.856;2023-02-15T11:31:53;9.40;99.90
3713;DHT22;1872;51.406;6.856;2023-02-15T11:34:48;9.40;99.90
3713;DHT22;1872;51.406;6.856;2023-02-15T11:37:19;9.50;99.90
3713;DHT22;1872;51.406;6.856;2023-02-15T11:39:46;9.50;99.90
3713;DHT22;1872;51.406;6.856;2023-02-15T11:42:20;9.60;99.90
3713;DHT22;1872;51.406;6.856;2023-02-15T11:45:07;9.60;99.90
3713;DHT22;1872;51.406;6.856;2023-02-15T11:47:37;9.60;99.90
3713;DHT22;1872;51.406;6.856;2023-02-15T11:50:03;9.60;99.90
3713;DHT22;1872;51.406;6.856;2023-02-15T11:52:29;9.70;99.90
3713;DHT22;1872;51.406;6.856;2023-02-15T11:54:55;9.70;99.90
3713;DHT22;1872;51.406;6.856;2023-02-15T11:57:28;9.70;99.90
3713;DHT22;1872;51.406;6.856;2023-02-15T12:00:15;9.70;99.90
3713;DHT22;1872;51.406;6.856;2023-02-15T12:02:47;9.70;99.90
3713;DHT22;1872;51.406;6.856;2023-02-15T12:05:18;9.80;99.90
3713;DHT22;1872;51.406;6.856;2023-02-15T12:08:00;9.80;99.90
3713;DHT22;1872;51.406;6.856;2023-02-15T12:10:34;9.80;99.90
3713;DHT22;1872;51.406;6.856;2023-02-15T12:15:36;9.90;99.90
3713;DHT22;1872;51.406;6.856;2023-02-15T12:18:02;9.90;99.90
3713;DHT22;1872;51.406;6.856;2023-02-15T12:20:32;10.00;99.90
3713;DHT22;1872;51.406;6.856;2023-02-15T12:23:04;10.00;99.90
3713;DHT22;1872;51.406;6.856;2023-02-15T12:25:54;10.00;99.90
3713;DHT22;1872;51.406;6.856;2023-02-15T12:31:41;10.10;99.90
3713;DHT22;1872;51.406;6.856;2023-02-15T12:36:56;10.20;99.90
3713;DHT22;1872;51.406;6.856;2023-02-15T12:39:26;10.30;99.90
3713;DHT22;1872;51.406;6.856;2023-02-15T12:44:28;10.40;99.90
3713;DHT22;1872;51.406;6.856;2023-02-15T12:47:02;10.40;99.90
3713;DHT22;1872;51.406;6.856;2023-02-15T12:49:37;10.50;99.90
3713;DHT22;1872;51.406;6.856;2023-02-15T12:52:06;10.50;99.90
3713;DHT22;1872;51.406;6.856;2023-02-15T12:54:46;10.60;99.90
3713;DHT22;1872;51.406;6.856;2023-02-15T12:57:33;10.60;99.90
3713;DHT22;1872;51.406;6.856;2023-02-15T13:00:01;10.60;99.90
3713;DHT22;1872;51.406;6.856;2023-02-15T13:02:52;10.70;99.90
3713;DHT22;1872;51.406;6.856;2023-02-15T13:08:00;10.80;99.90
3713;DHT22;1872;51.406;6.856;2023-02-15T13:10:33;10.80;99.90
3713;DHT22;1872;51.406;6.856;2023-02-15T13:13:10;10.80;99.90
3713;DHT22;1872;51.406;6.856;2023-02-15T13:15:39;10.90;99.90
3713;DHT22;1872;51.406;6.856;2023-02-15T13:18:13;10.90;99.90
3713;DHT22;1872;51.406;6.856;2023-02-15T13:20:42;10.90;99.90
3713;DHT22;1872;51.406;6.856;2023-02-15T13:23:30;11.00;99.90
3713;DHT22;1872;51.406;6.856;2023-02-15T13:25:59;11.00;99.90
3713;DHT22;1872;51.406;6.856;2023-02-15T13:28:52;11.10;99.90
3713;DHT22;1872;51.406;6.856;2023-02-15T13:31:23;11.10;99.90
3713;DHT22;1872;51.406;6.856;2023-02-15T13:34:07;11.10;99.90
3713;DHT22;1872;51.406;6.856;2023-02-15T13:44:15;11.30;99.90
3713;DHT22;1872;51.406;6.856;2023-02-15T13:46:54;11.30;99.90
3713;DHT22;1872;51.406;6.856;2023-02-15T13:52:24;11.40;99.90
3713;DHT22;1872;51.406;6.856;2023-02-15T13:55:31;11.40;99.90
3713;DHT22;1872;51.406;6.856;2023-02-15T14:00:59;11.40;99.90
3713;DHT22;1872;51.406;6.856;2023-02-15T14:14:41;11.70;99.90
3713;DHT22;1872;51.406;6.856;2023-02-15T14:19:48;11.60;99.90
3713;DHT22;1872;51.406;6.856;2023-02-15T14:25:16;11.70;99.90
3713;DHT22;1872;51.406;6.856;2023-02-15T14:30:37;11.60;99.90
3713;DHT22;1872;51.406;6.856;2023-02-15T14:35:51;11.70;99.90
3713;DHT22;1872;51.406;6.856;2023-02-15T14:41:16;11.60;99.90
3713;DHT22;1872;51.406;6.856;2023-02-15T14:48:57;11.50;99.90
3713;DHT22;1872;51.406;6.856;2023-02-15T15:04:35;11.30;99.90
3713;DHT22;1872;51.406;6.856;2023-02-15T15:07:21;11.30;99.90
3713;DHT22;1872;51.406;6.856;2023-02-15T15:12:43;11.30;99.90
3713;DHT22;1872;51.406;6.856;2023-02-15T15:15:31;11.20;99.90
3713;DHT22;1872;51.406;6.856;2023-02-15T15:18:10;11.30;99.90
3713;DHT22;1872;51.406;6.856;2023-02-15T15:20:51;11.30;99.90
3713;DHT22;1872;51.406;6.856;2023-02-15T15:25:56;11.30;99.90
3713;DHT22;1872;51.406;6.856;2023-02-15T15:31:26;11.30;99.90
3713;DHT22;1872;51.406;6.856;2023-02-15T15:42:12;11.20;99.90
3713;DHT22;1872;51.406;6.856;2023-02-15T15:50:17;11.20;99.90
3713;DHT22;1872;51.406;6.856;2023-02-15T15:52:50;11.20;99.90
3713;DHT22;1872;51.406;6.856;2023-02-15T15:55:20;11.20;99.90
3713;DHT22;1872;51.406;6.856;2023-02-15T15:57:50;11.10;99.90
3713;DHT22;1872;51.406;6.856;2023-02-15T16:02:56;11.00;99.90
3713;DHT22;1872;51.406;6.856;2023-02-15T16:05:24;11.00;99.90
3713;DHT22;1872;51.406;6.856;2023-02-15T16:07:50;11.00;99.90
3713;DHT22;1872;51.406;6.856;2023-02-15T16:10:28;10.90;99.90
3713;DHT22;1872;51.406;6.856;2023-02-15T16:12:55;10.90;99.90
3713;DHT22;1872;51.406;6.856;2023-02-15T16:15:27;10.80;99.90
3713;DHT22;1872;51.406;6.856;2023-02-15T16:17:57;10.70;99.90
3713;DHT22;1872;51.406;6.856;2023-02-15T16:20:32;10.70;99.90
3713;DHT22;1872;51.406;6.856;2023-02-15T16:23:25;10.60;99.90
3713;DHT22;1872;51.406;6.856;2023-02-15T16:28:35;10.50;99.90
3713;DHT22;1872;51.406;6.856;2023-02-15T16:31:14;10.40;99.90
3713;DHT22;1872;51.406;6.856;2023-02-15T16:33:41;10.30;99.90
3713;DHT22;1872;51.406;6.856;2023-02-15T16:36:22;10.20;99.90
3713;DHT22;1872;51.406;6.856;2023-02-15T16:41:28;10.10;99.90
3713;DHT22;1872;51.406;6.856;2023-02-15T16:43:57;10.00;99.90
3713;DHT22;1872;51.406;6.856;2023-02-15T16:46:30;9.90;99.90
3713;DHT22;1872;51.406;6.856;2023-02-15T16:48:59;9.80;99.90
3713;DHT22;1872;51.406;6.856;2023-02-15T16:51:29;9.80;99.90
3713;DHT22;1872;51.406;6.856;2023-02-15T16:53:57;9.70;99.90
3713;DHT22;1872;51.406;6.856;2023-02-15T16:56:27;9.60;99.90
3713;DHT22;1872;51.406;6.856;2023-02-15T16:58:56;9.50;99.90
3713;DHT22;1872;51.406;6.856;2023-02-15T17:01:28;9.50;99.90
3713;DHT22;1872;51.406;6.856;2023-02-15T17:07:20;9.40;99.90
3713;DHT22;1872;51.406;6.856;2023-02-15T17:09:54;9.30;99.90
3713;DHT22;1872;51.406;6.856;2023-02-15T17:12:47;9.20;99.90
3713;DHT22;1872;51.406;6.856;2023-02-15T17:18:05;9.10;99.90
3713;DHT22;1872;51.406;6.856;2023-02-15T17:20:33;9.10;99.90
3713;DHT22;1872;51.406;6.856;2023-02-15T17:22:59;9.10;99.90
3713;DHT22;1872;51.406;6.856;2023-02-15T17:25:37;9.10;99.90
3713;DHT22;1872;51.406;6.856;2023-02-15T17:28:03;9.10;99.90
3713;DHT22;1872;51.406;6.856;2023-02-15T17:30:34;9.10;99.90
3713;DHT22;1872;51.406;6.856;2023-02-15T17:33:04;9.10;99.90
3713;DHT22;1872;51.406;6.856;2023-02-15T17:35:43;9.00;99.90
3713;DHT22;1872;51.406;6.856;2023-02-15T17:38:19;9.00;99.90
3713;DHT22;1872;51.406;6.856;2023-02-15T17:40:44;9.00;99.90
3713;DHT22;1872;51.406;6.856;2023-02-15T17:43:10;9.00;99.90
3713;DHT22;1872;51.406;6.856;2023-02-15T17:45:44;8.90;99.90
3713;DHT22;1872;51.406;6.856;2023-02-15T17:48:26;8.90;99.90
3713;DHT22;1872;51.406;6.856;2023-02-15T17:50:57;8.90;99.90
3713;DHT22;1872;51.406;6.856;2023-02-15T17:53:23;8.90;99.90
3713;DHT22;1872;51.406;6.856;2023-02-15T17:55:50;8.80;99.90
3713;DHT22;1872;51.406;6.856;2023-02-15T17:58:17;8.80;99.90
3713;DHT22;1872;51.406;6.856;2023-02-15T18:00:57;8.80;99.90
3713;DHT22;1872;51.406;6.856;2023-02-15T18:03:48;8.80;99.90
3713;DHT22;1872;51.406;6.856;2023-02-15T18:06:35;8.80;99.90
3713;DHT22;1872;51.406;6.856;2023-02-15T18:09:21;8.70;99.90
3713;DHT22;1872;51.406;6.856;2023-02-15T18:14:45;8.70;99.90
3713;DHT22;1872;51.406;6.856;2023-02-15T18:17:14;8.70;99.90
3713;DHT22;1872;51.406;6.856;2023-02-15T18:19:43;8.70;99.90
3713;DHT22;1872;51.406;6.856;2023-02-15T18:22:14;8.70;99.90
3713;DHT22;1872;51.406;6.856;2023-02-15T18:24:43;8.70;99.90
3713;DHT22;1872;51.406;6.856;2023-02-15T18:27:14;8.60;99.90
3713;DHT22;1872;51.406;6.856;2023-02-15T18:29:40;8.60;99.90
3713;DHT22;1872;51.406;6.856;2023-02-15T18:32:20;8.60;99.90
3713;DHT22;1872;51.406;6.856;2023-02-15T18:34:56;8.60;99.90
3713;DHT22;1872;51.406;6.856;2023-02-15T18:37:25;8.50;99.90
3713;DHT22;1872;51.406;6.856;2023-02-15T18:39:53;8.50;99.90
3713;DHT22;1872;51.406;6.856;2023-02-15T18:42:23;8.50;99.90
3713;DHT22;1872;51.406;6.856;2023-02-15T18:44:56;8.50;99.90
3713;DHT22;1872;51.406;6.856;2023-02-15T18:47:25;8.50;99.90
3713;DHT22;1872;51.406;6.856;2023-02-15T18:49:53;8.40;99.90
3713;DHT22;1872;51.406;6.856;2023-02-15T18:52:21;8.40;99.90
3713;DHT22;1872;51.406;6.856;2023-02-15T18:54:51;8.40;99.90
3713;DHT22;1872;51.406;6.856;2023-02-15T18:57:18;8.30;99.90
3713;DHT22;1872;51.406;6.856;2023-02-15T18:59:44;8.30;99.90
3713;DHT22;1872;51.406;6.856;2023-02-15T19:02:12;8.30;99.90
3713;DHT22;1872;51.406;6.856;2023-02-15T19:04:38;8.20;99.90
3713;DHT22;1872;51.406;6.856;2023-02-15T19:07:03;8.20;99.90
3713;DHT22;1872;51.406;6.856;2023-02-15T19:09:30;8.20;99.90
3713;DHT22;1872;51.406;6.856;2023-02-15T19:11:58;8.20;99.90
3713;DHT22;1872;51.406;6.856;2023-02-15T19:14:29;8.20;99.90
3713;DHT22;1872;51.406;6.856;2023-02-15T19:16:56;8.20;99.90
3713;DHT22;1872;51.406;6.856;2023-02-15T19:19:23;8.10;99.90
3713;DHT22;1872;51.406;6.856;2023-02-15T19:21:49;8.10;99.90
3713;DHT22;1872;51.406;6.856;2023-02-15T19:24:28;8.00;99.90
3713;DHT22;1872;51.406;6.856;2023-02-15T19:27:05;8.00;99.90
3713;DHT22;1872;51.406;6.856;2023-02-15T19:29:31;7.90;99.90
3713;DHT22;1872;51.406;6.856;2023-02-15T19:31:57;8.00;99.90
3713;DHT22;1872;51.406;6.856;2023-02-15T19:34:23;7.90;99.90
3713;DHT22;1872;51.406;6.856;2023-02-15T19:36:52;7.90;99.90
3713;DHT22;1872;51.406;6.856;2023-02-15T19:39:36;7.90;99.90
3713;DHT22;1872;51.406;6.856;2023-02-15T19:42:08;7.90;99.90
3713;DHT22;1872;51.406;6.856;2023-02-15T19:44:41;7.80;99.90
3713;DHT22;1872;51.406;6.856;2023-02-15T19:47:15;7.80;99.90
3713;DHT22;1872;51.406;6.856;2023-02-15T19:49:41;7.70;99.90
3713;DHT22;1872;51.406;6.856;2023-02-15T19:52:25;7.70;99.90
3713;DHT22;1872;51.406;6.856;2023-02-15T19:54:54;7.70;99.90
3713;DHT22;1872;51.406;6.856;2023-02-15T19:57:20;7.70;99.90
3713;DHT22;1872;51.406;6.856;2023-02-15T19:59:47;7.70;99.90
3713;DHT22;1872;51.406;6.856;2023-02-15T20:02:14;7.60;99.90
3713;DHT22;1872;51.406;6.856;2023-02-15T20:04:40;7.60;99.90
3713;DHT22;1872;51.406;6.856;2023-02-15T20:07:25;7.60;99.90